createdAt,value
2022-10-03T00:30:23.534Z,0
2022-10-03T00:31:04.085Z,0
2022-10-03T00:31:44.700Z,0
2022-10-03T00:37:08.313Z,0
2022-10-03T00:37:48.777Z,0
2022-10-03T00:38:29.325Z,0
2022-10-03T00:39:09.835Z,0
2022-10-03T00:39:50.307Z,0
2022-10-03T00:40:30.792Z,0
2022-10-03T00:41:11.232Z,0
2022-10-03T00:41:51.736Z,0
2022-10-03T00:42:32.223Z,0
2022-10-03T00:43:12.752Z,0
2022-10-03T00:50:38.189Z,0
2022-10-03T00:51:18.659Z,0
2022-10-03T00:51:59.276Z,0
2022-10-03T00:52:39.739Z,0
2022-10-03T00:53:20.188Z,0
2022-10-03T00:54:00.738Z,0
2022-10-03T00:54:41.301Z,0
2022-10-03T00:55:21.762Z,0
2022-10-03T00:56:02.277Z,0
2022-10-03T00:56:42.743Z,0
2022-10-03T01:03:28.160Z,0
2022-10-03T01:04:08.648Z,0
2022-10-03T01:04:49.131Z,0
2022-10-03T01:05:29.702Z,0
2022-10-03T01:06:10.141Z,0
2022-10-03T01:06:50.601Z,0
2022-10-03T01:07:31.091Z,0
2022-10-03T01:08:12.542Z,0
2022-10-03T01:08:52.133Z,0
2022-10-03T01:09:32.611Z,0
2022-10-03T01:16:58.348Z,0
2022-10-03T01:17:38.826Z,0
2022-10-03T01:18:19.331Z,0
2022-10-03T01:18:59.799Z,0
2022-10-03T01:22:44.734Z,0
2022-10-03T01:25:13.003Z,0
2022-10-03T01:25:53.427Z,0
2022-10-03T01:26:33.930Z,0
2022-10-03T01:27:14.432Z,0
2022-10-03T01:27:55.003Z,0
2022-10-03T01:28:35.403Z,0
2022-10-03T01:29:15.867Z,0
2022-10-03T01:29:56.399Z,0
2022-10-03T01:30:36.808Z,0
2022-10-03T01:38:02.210Z,0
2022-10-03T01:38:42.714Z,0
2022-10-03T01:39:23.186Z,0
2022-10-03T01:40:03.691Z,0
2022-10-03T01:41:24.575Z,0
2022-10-03T01:42:05.202Z,0
2022-10-03T01:42:45.693Z,0
2022-10-03T01:44:06.627Z,0
2022-10-03T01:51:31.991Z,0
2022-10-03T01:52:12.467Z,0
2022-10-03T01:52:52.966Z,0
2022-10-03T01:53:33.522Z,0
2022-10-03T01:54:13.969Z,0
2022-10-03T01:54:54.517Z,0
2022-10-03T01:55:34.979Z,0
2022-10-03T01:56:15.447Z,0
2022-10-03T01:56:55.885Z,0
2022-10-03T01:57:36.432Z,0
2022-10-03T01:58:16.853Z,0
2022-10-03T02:05:42.178Z,0
2022-10-03T02:06:22.625Z,0
2022-10-03T02:07:03.169Z,0
2022-10-03T02:07:43.636Z,0
2022-10-03T02:08:24.099Z,0
2022-10-03T02:09:04.606Z,0
2022-10-03T02:09:45.079Z,0
2022-10-03T02:11:06.189Z,0
2022-10-03T02:11:46.611Z,0
2022-10-03T02:19:12.030Z,0
2022-10-03T02:19:52.466Z,0
2022-10-03T02:20:32.969Z,0
2022-10-03T02:21:13.435Z,0
2022-10-03T02:21:53.900Z,0
2022-10-03T02:22:34.383Z,0
2022-10-03T02:23:14.856Z,0
2022-10-03T02:23:55.327Z,0
2022-10-03T02:24:35.807Z,0
2022-10-03T02:25:16.319Z,0
2022-10-03T02:25:56.835Z,0
2022-10-03T02:33:22.197Z,0
2022-10-03T02:34:02.662Z,0
2022-10-03T02:34:43.138Z,0
2022-10-03T02:35:23.626Z,0
2022-10-03T02:36:04.093Z,0
2022-10-03T02:36:44.641Z,0
2022-10-03T02:37:25.108Z,0
2022-10-03T02:38:05.548Z,0
2022-10-03T02:38:46.042Z,0
2022-10-03T02:39:26.558Z,0
2022-10-03T02:40:07.001Z,0
2022-10-03T02:47:32.372Z,0
2022-10-03T02:48:31.097Z,0
2022-10-03T02:48:53.339Z,0
2022-10-03T02:49:33.883Z,0
2022-10-03T02:50:14.387Z,0
2022-10-03T02:50:54.816Z,0
2022-10-03T02:51:35.344Z,0
2022-10-03T02:52:15.798Z,0
2022-10-03T02:52:56.310Z,0
2022-10-03T02:53:36.783Z,0
2022-10-03T03:01:02.279Z,0
2022-10-03T03:01:43.029Z,0
2022-10-03T03:02:23.280Z,0
2022-10-03T03:03:03.678Z,0
2022-10-03T03:03:44.166Z,0
2022-10-03T03:04:24.699Z,0
2022-10-03T03:05:05.126Z,0
2022-10-03T03:05:45.623Z,0
2022-10-03T03:06:26.080Z,0
2022-10-03T03:07:06.564Z,0
2022-10-03T03:07:47.017Z,0
2022-10-03T03:14:32.052Z,0
2022-10-03T03:15:12.512Z,0
2022-10-03T03:15:52.983Z,0
2022-10-03T03:16:33.523Z,0
2022-10-03T03:17:13.932Z,0
2022-10-03T03:17:54.452Z,0
2022-10-03T03:21:33.561Z,0
2022-10-03T03:22:13.959Z,0
2022-10-03T03:22:54.503Z,0
2022-10-03T03:28:18.592Z,0
2022-10-03T03:28:58.939Z,0
2022-10-03T03:29:39.372Z,0
2022-10-03T03:30:19.834Z,0
2022-10-03T03:31:00.330Z,0
2022-10-03T03:31:41.051Z,0
2022-10-03T03:32:21.340Z,0
2022-10-03T03:33:01.780Z,0
2022-10-03T03:33:42.351Z,0
2022-10-03T03:34:22.813Z,0
2022-10-03T03:41:48.164Z,0
2022-10-03T03:42:28.663Z,0
2022-10-03T03:43:09.121Z,0
2022-10-03T03:43:49.586Z,0
2022-10-03T03:44:30.081Z,0
2022-10-03T03:45:10.605Z,0
2022-10-03T03:45:51.116Z,0
2022-10-03T03:46:31.525Z,0
2022-10-03T03:47:12.025Z,0
2022-10-03T03:47:52.527Z,0
2022-10-03T03:48:33.014Z,0
2022-10-03T03:54:38.348Z,0
2022-10-03T03:55:18.811Z,0
2022-10-03T03:55:59.319Z,0
2022-10-03T03:56:39.835Z,0
2022-10-03T03:57:20.339Z,0
2022-10-03T03:58:00.853Z,0
2022-10-03T03:58:41.330Z,0
2022-10-03T03:59:21.826Z,0
2022-10-03T04:00:02.396Z,0
2022-10-03T04:00:42.919Z,0
2022-10-03T04:06:48.143Z,0
2022-10-03T04:07:28.595Z,0
2022-10-03T04:08:09.083Z,0
2022-10-03T04:08:49.528Z,0
2022-10-03T04:09:30.908Z,0
2022-10-03T04:10:11.448Z,0
2022-10-03T04:10:51.928Z,0
2022-10-03T04:11:32.380Z,0
2022-10-03T04:12:12.893Z,0
2022-10-03T04:17:43.787Z,0
2022-10-03T04:18:24.276Z,0
2022-10-03T04:19:04.729Z,0
2022-10-03T04:24:28.486Z,0
2022-10-03T04:25:08.939Z,0
2022-10-03T04:25:49.501Z,0
2022-10-03T04:26:29.938Z,0
2022-10-03T04:27:10.431Z,0
2022-10-03T04:27:50.989Z,0
2022-10-03T04:28:31.426Z,0
2022-10-03T04:29:11.918Z,0
2022-10-03T04:32:50.925Z,0
2022-10-03T04:33:31.290Z,0
2022-10-03T04:34:11.750Z,0
2022-10-03T04:39:35.739Z,0
2022-10-03T04:40:16.153Z,0
2022-10-03T04:40:56.649Z,0
2022-10-03T04:41:40.897Z,0
2022-10-03T04:42:17.629Z,0
2022-10-03T04:42:58.098Z,0
2022-10-03T04:43:38.598Z,0
2022-10-03T04:44:19.076Z,0
2022-10-03T04:45:40.108Z,0
2022-10-03T04:46:20.561Z,0
2022-10-03T04:53:45.828Z,0
2022-10-03T04:54:26.317Z,0
2022-10-03T04:55:06.821Z,0
2022-10-03T04:55:47.330Z,0
2022-10-03T04:56:27.781Z,0
2022-10-03T04:57:08.260Z,0
2022-10-03T04:57:48.712Z,0
2022-10-03T04:58:29.168Z,0
2022-10-03T04:59:09.630Z,0
2022-10-03T04:59:50.094Z,0
2022-10-03T05:00:30.565Z,0
2022-10-03T05:07:55.873Z,0
2022-10-03T05:08:36.329Z,0
2022-10-03T05:09:16.759Z,0
2022-10-03T05:09:57.313Z,0
2022-10-03T05:10:37.716Z,0
2022-10-03T05:11:18.196Z,0
2022-10-03T05:11:58.691Z,0
2022-10-03T05:12:39.184Z,0
2022-10-03T05:13:19.662Z,0
2022-10-03T05:14:40.591Z,0
2022-10-03T05:22:05.989Z,0
2022-10-03T05:22:46.428Z,0
2022-10-03T05:23:26.885Z,0
2022-10-03T05:24:07.370Z,0
2022-10-03T05:24:47.833Z,0
2022-10-03T05:25:28.418Z,0
2022-10-03T05:26:32.575Z,0
2022-10-03T05:26:49.242Z,0
2022-10-03T05:27:29.768Z,0
2022-10-03T05:28:10.314Z,0
2022-10-03T05:36:16.023Z,0
2022-10-03T05:36:56.422Z,0
2022-10-03T05:37:36.882Z,0
2022-10-03T05:38:17.351Z,0
2022-10-03T05:38:57.855Z,0
2022-10-03T05:42:37.203Z,0
2022-10-03T05:43:17.615Z,0
2022-10-03T05:43:58.124Z,0
2022-10-03T05:49:22.064Z,5
2022-10-03T05:50:04.612Z,10
2022-10-03T05:50:42.990Z,10
2022-10-03T05:51:23.433Z,10
2022-10-03T05:52:04.011Z,10
2022-10-03T05:52:44.622Z,10
2022-10-03T06:32:07.441Z,95
2022-10-03T06:32:48.372Z,95
2022-10-03T06:33:29.343Z,90
2022-10-03T06:35:32.299Z,95
2022-10-03T06:39:11.943Z,95
2022-10-03T06:39:52.308Z,100
2022-10-03T06:40:32.795Z,100
2022-10-03T06:45:56.650Z,105
2022-10-03T06:46:37.131Z,105
2022-10-03T06:47:17.576Z,105
2022-10-03T06:47:58.044Z,105
2022-10-03T06:48:38.591Z,105
2022-10-03T06:49:19.048Z,110
2022-10-03T06:50:00.217Z,110
2022-10-03T06:50:40.670Z,110
2022-10-03T06:51:21.161Z,110
2022-10-03T06:58:46.571Z,110
2022-10-03T06:59:27.055Z,110
2022-10-03T07:00:07.561Z,110
2022-10-03T07:00:48.101Z,110
2022-10-03T07:01:28.559Z,105
2022-10-03T07:02:09.080Z,105
2022-10-03T07:02:49.649Z,85
2022-10-03T07:03:30.063Z,110
2022-10-03T07:04:10.556Z,80
2022-10-03T07:12:16.827Z,95
2022-10-03T07:12:57.315Z,95
2022-10-03T07:13:37.837Z,95
2022-10-03T07:14:18.320Z,95
2022-10-03T07:14:58.833Z,90
2022-10-03T07:16:04.945Z,90
2022-10-03T07:16:27.739Z,90
2022-10-03T07:17:00.323Z,90
2022-10-03T07:17:40.761Z,85
2022-10-03T07:18:21.269Z,85
2022-10-03T07:24:26.781Z,75
2022-10-03T07:25:07.228Z,75
2022-10-03T07:25:47.740Z,75
2022-10-03T07:26:28.186Z,70
2022-10-03T07:27:08.638Z,70
2022-10-03T07:27:51.216Z,75
2022-10-03T07:28:29.706Z,75
2022-10-03T07:29:10.232Z,75
2022-10-03T07:29:50.681Z,70
2022-10-03T07:30:31.202Z,70
2022-10-03T07:37:56.774Z,55
2022-10-03T07:38:37.277Z,50
2022-10-03T07:39:17.748Z,50
2022-10-03T07:39:58.265Z,40
2022-10-03T07:40:38.791Z,45
2022-10-03T07:41:19.239Z,40
2022-10-03T07:41:59.729Z,40
2022-10-03T07:42:43.566Z,40
2022-10-03T07:43:20.712Z,45
2022-10-03T07:44:01.174Z,50
2022-10-03T07:51:26.968Z,45
2022-10-03T07:52:07.460Z,60
2022-10-03T07:52:47.951Z,50
2022-10-03T07:53:28.429Z,55
2022-10-03T07:54:08.940Z,55
2022-10-03T07:54:50.103Z,40
2022-10-03T07:55:30.669Z,35
2022-10-03T07:56:11.084Z,40
2022-10-03T07:56:51.616Z,40
2022-10-03T08:03:36.675Z,45
2022-10-03T08:04:17.220Z,50
2022-10-03T08:04:57.783Z,45
2022-10-03T08:05:38.206Z,60
2022-10-03T08:06:18.727Z,50
2022-10-03T08:06:59.239Z,45
2022-10-03T08:07:39.717Z,40
2022-10-03T08:08:20.219Z,40
2022-10-03T08:09:00.700Z,40
2022-10-03T08:09:41.235Z,45
2022-10-03T08:17:06.658Z,35
2022-10-03T08:17:47.181Z,35
2022-10-03T08:18:27.632Z,35
2022-10-03T08:19:10.584Z,35
2022-10-03T08:19:48.602Z,35
2022-10-03T08:20:29.208Z,35
2022-10-03T08:21:09.734Z,35
2022-10-03T08:21:50.279Z,40
2022-10-03T08:22:30.786Z,40
2022-10-03T08:29:16.558Z,40
2022-10-03T08:29:57.133Z,40
2022-10-03T08:30:37.651Z,40
2022-10-03T08:31:18.279Z,40
2022-10-03T08:31:58.772Z,40
2022-10-03T08:32:39.295Z,40
2022-10-03T08:33:19.789Z,45
2022-10-03T08:34:00.298Z,40
2022-10-03T08:34:40.793Z,40
2022-10-03T08:35:21.380Z,45
2022-10-03T08:42:46.851Z,45
2022-10-03T08:44:07.924Z,45
2022-10-03T08:44:48.438Z,45
2022-10-03T08:45:28.948Z,45
2022-10-03T08:46:50.144Z,45
2022-10-03T08:47:30.702Z,45
2022-10-03T08:48:11.122Z,45
2022-10-03T08:48:51.704Z,45
2022-10-03T08:54:56.982Z,45
2022-10-03T08:55:37.480Z,45
2022-10-03T08:56:18.013Z,40
2022-10-03T08:56:58.462Z,45
2022-10-03T08:58:19.471Z,45
2022-10-03T08:58:59.982Z,45
2022-10-03T08:59:40.445Z,45
2022-10-03T09:00:20.943Z,45
2022-10-03T09:07:16.886Z,45
2022-10-03T09:07:47.056Z,40
2022-10-03T09:08:27.515Z,40
2022-10-03T09:09:08.018Z,40
2022-10-03T09:12:47.247Z,40
2022-10-03T09:13:27.716Z,40
2022-10-03T09:14:08.160Z,45
2022-10-03T09:19:32.084Z,45
2022-10-03T09:20:12.672Z,50
2022-10-03T09:20:53.138Z,45
2022-10-03T09:21:37.027Z,50
2022-10-03T09:22:14.110Z,45
2022-10-03T09:22:54.671Z,45
2022-10-03T09:23:35.209Z,45
2022-10-03T09:24:15.665Z,50
2022-10-03T09:24:56.227Z,50
2022-10-03T09:25:36.735Z,50
2022-10-03T09:32:22.494Z,45
2022-10-03T09:33:02.231Z,45
2022-10-03T09:33:42.766Z,45
2022-10-03T09:34:23.218Z,45
2022-10-03T09:35:06.920Z,45
2022-10-03T09:35:44.314Z,45
2022-10-03T09:36:24.880Z,45
2022-10-03T09:37:05.388Z,45
2022-10-03T09:37:46.009Z,50
2022-10-03T09:38:26.381Z,50
2022-10-03T09:39:06.923Z,55
2022-10-03T09:45:52.122Z,50
2022-10-03T09:48:31.530Z,50
2022-10-03T09:49:12.005Z,45
2022-10-03T09:49:52.501Z,45
2022-10-03T09:53:55.712Z,50
2022-10-03T09:54:36.189Z,50
2022-10-03T09:55:16.700Z,50
2022-10-03T09:55:57.131Z,50
2022-10-03T09:56:37.939Z,65
2022-10-03T09:57:22.106Z,55
2022-10-03T09:57:58.626Z,55
2022-10-03T09:58:39.040Z,50
2022-10-03T09:59:19.535Z,45
2022-10-03T10:00:00.059Z,45
2022-10-03T10:05:28.018Z,45
2022-10-03T10:06:09.330Z,50
2022-10-03T10:11:35.614Z,55
2022-10-03T10:12:16.291Z,40
2022-10-03T10:12:56.656Z,45
2022-10-03T10:14:03.140Z,45
2022-10-03T10:14:19.741Z,45
2022-10-03T10:17:46.159Z,55
2022-10-03T10:18:25.338Z,50
2022-10-03T10:19:05.954Z,55
2022-10-03T10:19:47.948Z,45
2022-10-03T10:20:28.441Z,40
2022-10-03T10:22:35.367Z,40
2022-10-03T10:23:15.740Z,40
2022-10-03T10:23:56.573Z,40
2022-10-03T10:24:37.236Z,40
2022-10-03T10:25:17.768Z,40
2022-10-03T10:25:58.525Z,40
2022-10-03T10:26:39.088Z,40
2022-10-03T10:29:26.174Z,60
2022-10-03T10:30:09.213Z,45
2022-10-03T10:33:36.542Z,60
2022-10-03T10:34:17.472Z,60
2022-10-03T10:34:58.011Z,60
2022-10-03T10:35:38.874Z,60
2022-10-03T10:36:19.198Z,60
2022-10-03T10:37:00.926Z,55
2022-10-03T10:41:45.351Z,40
2022-10-03T10:42:25.970Z,55
2022-10-03T10:43:06.503Z,55
2022-10-03T10:43:47.024Z,55
2022-10-03T10:45:55.219Z,50
2022-10-03T10:46:35.715Z,40
2022-10-03T10:47:17.311Z,40
2022-10-03T10:47:56.950Z,40
2022-10-03T10:48:37.390Z,40
2022-10-03T10:49:17.964Z,40
2022-10-03T10:49:59.411Z,40
2022-10-03T10:50:38.930Z,40
2022-10-03T10:51:19.432Z,40
2022-10-03T10:52:00.256Z,40
2022-10-03T10:58:45.530Z,40
2022-10-03T10:59:26.076Z,40
2022-10-03T11:00:06.549Z,35
2022-10-03T11:00:47.045Z,35
2022-10-03T11:01:27.585Z,35
2022-10-03T11:02:07.968Z,35
2022-10-03T11:02:48.574Z,45
2022-10-03T11:03:29.105Z,50
2022-10-03T11:04:09.697Z,40
2022-10-03T11:10:55.387Z,50
2022-10-03T11:11:35.857Z,50
2022-10-03T11:12:16.331Z,50
2022-10-03T11:12:57.611Z,50
2022-10-03T11:13:38.609Z,45
2022-10-03T11:14:19.038Z,45
2022-10-03T11:15:00.130Z,50
2022-10-03T11:18:25.408Z,40
2022-10-03T11:19:05.854Z,40
2022-10-03T11:19:46.427Z,35
2022-10-03T11:20:28.862Z,40
2022-10-03T11:21:08.264Z,40
2022-10-03T11:21:48.843Z,40
2022-10-03T11:22:29.341Z,40
2022-10-03T11:27:15.470Z,55
2022-10-03T11:27:57.074Z,55
2022-10-03T11:28:37.549Z,55
2022-10-03T11:29:18.068Z,55
2022-10-03T11:29:58.768Z,60
2022-10-03T11:30:40.078Z,45
2022-10-03T11:34:06.615Z,40
2022-10-03T11:34:45.333Z,40
2022-10-03T11:35:25.740Z,50
2022-10-03T11:36:09.018Z,40
2022-10-03T11:36:50.269Z,40
2022-10-03T11:42:15.331Z,35
2022-10-03T11:42:55.846Z,35
2022-10-03T11:43:36.298Z,35
2022-10-03T11:44:16.832Z,35
2022-10-03T11:44:59.295Z,35
2022-10-03T11:45:39.851Z,30
2022-10-03T11:53:06.417Z,30
2022-10-03T11:53:46.062Z,30
2022-10-03T12:32:14.858Z,30
2022-10-03T12:32:55.108Z,30
2022-10-03T12:33:36.086Z,30
2022-10-03T12:34:16.133Z,35
2022-10-03T12:37:39.401Z,40
2022-10-03T12:38:19.880Z,40
2022-10-03T12:39:00.422Z,40
2022-10-03T12:39:40.860Z,40
2022-10-03T12:40:21.454Z,40
2022-10-03T12:41:02.090Z,35
2022-10-03T12:41:42.820Z,40
2022-10-03T12:45:22.033Z,40
2022-10-03T12:46:02.535Z,40
2022-10-03T12:46:42.994Z,40
2022-10-03T12:51:26.644Z,40
2022-10-03T12:52:07.115Z,40
2022-10-03T12:52:47.633Z,40
2022-10-03T12:53:28.116Z,45
2022-10-03T12:54:08.626Z,40
2022-10-03T12:54:49.101Z,45
2022-10-03T12:55:29.606Z,45
2022-10-03T12:56:10.109Z,45
2022-10-03T12:56:50.619Z,45
2022-10-03T12:57:31.090Z,45
2022-10-03T12:58:11.571Z,45
2022-10-03T13:05:36.954Z,40
2022-10-03T13:06:17.614Z,35
2022-10-03T13:07:05.183Z,30
2022-10-03T13:07:38.523Z,30
2022-10-03T13:08:19.035Z,30
2022-10-03T13:08:59.721Z,30
2022-10-03T13:09:40.254Z,35
2022-10-03T13:10:20.770Z,35
2022-10-03T13:11:01.294Z,35
2022-10-03T13:18:26.805Z,25
2022-10-03T13:19:07.276Z,25
2022-10-03T13:19:47.754Z,25
2022-10-03T13:20:28.259Z,25
2022-10-03T13:21:21.354Z,25
2022-10-03T13:21:49.196Z,25
2022-10-03T13:22:29.712Z,25
2022-10-03T13:23:10.283Z,25
2022-10-03T13:23:50.785Z,25
2022-10-03T13:24:31.357Z,30
2022-10-03T13:31:56.863Z,30
2022-10-03T13:32:37.403Z,30
2022-10-03T13:33:17.881Z,30
2022-10-03T13:33:58.434Z,25
2022-10-03T13:34:39.008Z,25
2022-10-03T13:35:19.475Z,25
2022-10-03T13:35:59.988Z,25
2022-10-03T13:36:40.473Z,25
2022-10-03T13:37:20.940Z,25
2022-10-03T13:38:01.434Z,25
2022-10-03T13:40:55.361Z,30
2022-10-03T13:41:35.718Z,30
2022-10-03T13:42:16.249Z,25
2022-10-03T13:42:56.699Z,25
2022-10-03T13:47:40.163Z,35
2022-10-03T13:48:20.619Z,35
2022-10-03T13:49:02.717Z,30
2022-10-03T13:52:44.045Z,30
2022-10-03T13:53:24.454Z,40
2022-10-03T13:54:04.901Z,35
2022-10-03T13:59:28.913Z,35
2022-10-03T14:00:09.407Z,35
2022-10-03T14:00:49.876Z,35
2022-10-03T14:01:30.377Z,40
2022-10-03T14:02:10.876Z,35
2022-10-03T14:02:51.417Z,35
2022-10-03T14:03:31.799Z,35
2022-10-03T14:04:12.351Z,35
2022-10-03T14:04:52.783Z,35
2022-10-03T14:05:33.285Z,35
2022-10-03T14:12:58.652Z,25
2022-10-03T14:13:41.367Z,25
2022-10-03T14:14:21.714Z,25
2022-10-03T14:15:02.279Z,25
2022-10-03T14:15:42.858Z,25
2022-10-03T14:16:23.337Z,25
2022-10-03T14:23:48.662Z,25
2022-10-03T14:24:30.804Z,25
2022-10-03T14:25:09.662Z,25
2022-10-03T14:25:50.201Z,25
2022-10-03T14:26:30.723Z,25
2022-10-03T14:27:11.372Z,25
2022-10-03T14:27:51.695Z,25
2022-10-03T14:28:32.272Z,25
2022-10-03T14:29:12.702Z,25
2022-10-03T14:29:53.172Z,25
2022-10-03T14:37:18.609Z,25
2022-10-03T14:37:59.054Z,25
2022-10-03T14:38:39.538Z,25
2022-10-03T14:39:20.047Z,25
2022-10-03T14:40:00.552Z,25
2022-10-03T14:40:41.025Z,25
2022-10-03T14:41:21.534Z,25
2022-10-03T14:42:02.053Z,25
2022-10-03T14:42:42.531Z,30
2022-10-03T14:43:22.989Z,30
2022-10-03T14:44:10.864Z,35
2022-10-03T14:50:48.440Z,30
2022-10-03T14:51:28.866Z,25
2022-10-03T14:52:09.387Z,25
2022-10-03T14:52:49.812Z,25
2022-10-03T14:53:30.349Z,20
2022-10-03T14:54:10.818Z,20
2022-10-03T14:54:51.326Z,20
2022-10-03T14:55:31.816Z,20
2022-10-03T14:56:12.242Z,20
2022-10-03T14:56:52.730Z,20
2022-10-03T14:57:43.568Z,20
2022-10-03T15:04:58.710Z,20
2022-10-03T15:05:39.234Z,20
2022-10-03T15:06:19.703Z,20
2022-10-03T15:07:00.162Z,20
2022-10-03T15:07:40.651Z,20
2022-10-03T15:08:21.136Z,20
2022-10-03T15:09:01.642Z,20
2022-10-03T15:09:42.128Z,20
2022-10-03T15:10:22.608Z,20
2022-10-03T15:11:03.114Z,20
2022-10-03T15:18:28.460Z,15
2022-10-03T15:19:08.945Z,15
2022-10-03T15:19:49.391Z,15
2022-10-03T15:20:29.867Z,15
2022-10-03T15:21:10.430Z,15
2022-10-03T15:21:50.961Z,15
2022-10-03T15:22:31.388Z,15
2022-10-03T15:23:11.872Z,15
2022-10-03T15:23:52.344Z,15
2022-10-03T15:24:32.849Z,15
2022-10-03T15:25:13.324Z,10
2022-10-03T15:32:38.714Z,10
2022-10-03T15:33:19.150Z,10
2022-10-03T15:33:59.639Z,10
2022-10-03T15:34:40.185Z,10
2022-10-03T15:35:20.682Z,10
2022-10-03T15:36:01.105Z,10
2022-10-03T15:36:41.601Z,10
2022-10-03T15:37:22.097Z,10
2022-10-03T15:38:02.542Z,10
2022-10-03T15:38:43.059Z,10
2022-10-03T15:46:48.796Z,10
2022-10-03T15:47:29.286Z,10
2022-10-03T15:48:09.766Z,10
2022-10-03T15:48:50.237Z,10
2022-10-03T15:49:30.735Z,10
2022-10-03T15:50:11.218Z,10
2022-10-03T15:50:51.710Z,10
2022-10-03T15:51:32.185Z,10
2022-10-03T15:52:12.659Z,5
2022-10-03T15:52:53.167Z,5
2022-10-03T15:58:58.874Z,5
2022-10-03T15:59:39.378Z,5
2022-10-03T16:00:19.879Z,5
2022-10-03T16:01:00.447Z,5
2022-10-03T16:01:41.141Z,5
2022-10-03T16:02:21.510Z,5
2022-10-03T16:03:01.842Z,5
2022-10-03T16:03:42.308Z,5
2022-10-03T16:04:22.841Z,5
2022-10-03T16:05:03.303Z,5
2022-10-03T16:12:28.664Z,5
2022-10-03T16:13:09.144Z,5
2022-10-03T16:13:49.642Z,5
2022-10-03T16:14:30.156Z,5
2022-10-03T16:15:13.956Z,5
2022-10-03T16:15:51.248Z,5
2022-10-03T16:16:31.780Z,5
2022-10-03T16:17:12.168Z,5
2022-10-03T16:17:52.661Z,5
2022-10-03T16:18:33.222Z,5
2022-10-03T16:25:58.705Z,5
2022-10-03T16:26:39.177Z,5
2022-10-03T16:27:19.619Z,5
2022-10-03T16:28:00.194Z,5
2022-10-03T16:28:40.588Z,0
2022-10-03T16:29:21.101Z,0
2022-10-03T16:30:01.573Z,0
2022-10-03T16:30:42.103Z,0
2022-10-03T16:31:22.653Z,0
2022-10-03T16:32:03.133Z,0
2022-10-03T16:39:28.540Z,0
2022-10-03T16:40:09.054Z,0
2022-10-03T16:40:49.569Z,0
2022-10-03T16:41:30.098Z,0
2022-10-03T16:42:10.590Z,0
2022-10-03T16:42:51.071Z,0
2022-10-03T16:43:31.540Z,0
2022-10-03T16:44:12.003Z,0
2022-10-03T16:44:52.496Z,0
2022-10-03T16:45:33.090Z,0
2022-10-03T16:46:13.597Z,0
2022-10-03T16:50:48.871Z,0
2022-10-03T16:51:29.203Z,0
2022-10-03T16:52:09.696Z,0
2022-10-03T16:57:33.655Z,0
2022-10-03T16:58:14.102Z,0
2022-10-03T16:58:54.635Z,0
2022-10-03T16:59:35.153Z,0
2022-10-03T17:00:15.645Z,0
2022-10-03T17:01:09.379Z,0
2022-10-03T17:01:36.767Z,0
2022-10-03T17:02:17.176Z,0
2022-10-03T17:02:57.575Z,0
2022-10-03T17:03:38.057Z,0
2022-10-03T17:11:43.897Z,0
2022-10-03T17:12:24.476Z,0
2022-10-03T17:13:05.003Z,0
2022-10-03T17:13:45.440Z,0
2022-10-03T17:14:25.962Z,0
2022-10-03T17:15:06.458Z,0
2022-10-03T17:15:46.904Z,0
2022-10-03T17:16:27.530Z,0
2022-10-03T17:17:07.880Z,0
2022-10-03T17:17:48.354Z,0
2022-10-03T17:25:17.409Z,0
2022-10-03T17:25:54.128Z,0
2022-10-03T17:26:34.570Z,0
2022-10-03T17:27:15.112Z,0
2022-10-03T17:27:55.630Z,0
2022-10-03T17:28:36.098Z,0
2022-10-03T17:29:16.518Z,0
2022-10-03T17:29:57.016Z,0
2022-10-03T17:30:37.520Z,0
2022-10-03T17:31:18.118Z,0
2022-10-03T17:38:49.645Z,0
2022-10-03T17:39:24.009Z,0
2022-10-03T17:40:04.490Z,0
2022-10-03T17:40:45.035Z,0
2022-10-03T17:41:25.538Z,0
2022-10-03T17:42:05.969Z,0
2022-10-03T17:42:46.454Z,0
2022-10-03T17:43:26.933Z,0
2022-10-03T17:44:07.407Z,0
2022-10-03T17:44:47.906Z,0
2022-10-03T17:45:28.535Z,0
2022-10-03T17:52:53.717Z,0
2022-10-03T17:53:34.216Z,0
2022-10-03T17:54:14.720Z,0
2022-10-03T18:34:04.309Z,0
2022-10-03T18:34:44.732Z,0
2022-10-03T18:35:25.237Z,0
2022-10-03T18:36:05.657Z,0
2022-10-03T18:40:49.028Z,0
2022-10-03T18:41:29.520Z,0
2022-10-03T18:42:10.008Z,0
2022-10-03T18:42:50.535Z,0
2022-10-03T18:43:30.999Z,0
2022-10-03T18:44:11.421Z,0
2022-10-03T18:44:51.899Z,0
2022-10-03T18:45:32.425Z,0
2022-10-03T18:46:12.984Z,0
2022-10-03T18:46:53.341Z,0
2022-10-03T18:47:33.813Z,0
2022-10-03T18:54:59.169Z,0
2022-10-03T18:55:39.655Z,0
2022-10-03T18:56:20.164Z,0
2022-10-03T18:57:00.631Z,0
2022-10-03T18:57:41.126Z,0
2022-10-03T18:58:21.633Z,0
2022-10-03T18:59:02.094Z,0
2022-10-03T18:59:42.713Z,0
2022-10-03T19:00:23.139Z,0
2022-10-03T19:01:03.827Z,0
2022-10-03T19:08:29.080Z,0
2022-10-03T19:09:09.530Z,0
2022-10-03T19:09:50.009Z,0
2022-10-03T19:10:30.481Z,0
2022-10-03T19:11:10.973Z,0
2022-10-03T19:11:51.488Z,0
2022-10-03T19:12:32.010Z,0
2022-10-03T19:13:12.463Z,0
2022-10-03T19:13:54.126Z,0
2022-10-03T19:14:33.476Z,0
2022-10-03T19:21:58.854Z,0
2022-10-03T19:22:39.363Z,0
2022-10-03T19:23:19.862Z,0
2022-10-03T19:24:00.349Z,0
2022-10-03T19:24:57.671Z,0
2022-10-03T19:25:21.296Z,0
2022-10-03T19:26:01.791Z,0
2022-10-03T19:26:42.334Z,0
2022-10-03T19:27:22.769Z,0
2022-10-03T19:28:03.317Z,0
2022-10-03T19:28:43.752Z,0
2022-10-03T19:36:09.125Z,0
2022-10-03T19:36:49.592Z,0
2022-10-03T19:37:30.076Z,0
2022-10-03T19:38:10.576Z,0
2022-10-03T19:38:51.048Z,0
2022-10-03T19:39:31.558Z,0
2022-10-03T19:40:11.998Z,0
2022-10-03T19:40:52.469Z,0
2022-10-03T19:44:41.253Z,0
2022-10-03T19:47:31.240Z,0
2022-10-03T19:48:09.543Z,0
2022-10-03T19:48:50.044Z,0
2022-10-03T19:49:30.471Z,0
2022-10-03T19:54:54.302Z,0
2022-10-03T19:55:34.761Z,0
2022-10-03T19:56:15.236Z,0
2022-10-03T19:56:55.752Z,0
2022-10-03T19:57:36.271Z,0
2022-10-03T19:58:18.241Z,0
2022-10-03T19:58:57.244Z,0
2022-10-03T19:59:37.747Z,0
2022-10-03T20:00:18.218Z,0
2022-10-03T20:00:58.772Z,0
2022-10-03T20:08:24.061Z,0
2022-10-03T20:09:04.549Z,0
2022-10-03T20:09:45.022Z,0
2022-10-03T20:10:25.525Z,0
2022-10-03T20:11:05.977Z,0
2022-10-03T20:11:46.445Z,0
2022-10-03T20:12:26.933Z,0
2022-10-03T20:13:07.433Z,0
2022-10-03T20:13:47.878Z,0
2022-10-03T20:14:28.358Z,0
2022-10-03T20:15:08.846Z,0
2022-10-03T20:22:34.236Z,0
2022-10-03T20:23:14.710Z,0
2022-10-03T20:23:55.235Z,0
2022-10-03T20:24:35.709Z,0
2022-10-03T20:25:16.208Z,0
2022-10-03T20:25:56.701Z,0
2022-10-03T20:26:37.170Z,0
2022-10-03T20:27:17.641Z,0
2022-10-03T20:27:58.206Z,0
2022-10-03T20:28:38.684Z,0
2022-10-03T20:36:03.883Z,0
2022-10-03T20:36:44.374Z,0
2022-10-03T20:37:24.843Z,0
2022-10-03T20:38:05.491Z,0
2022-10-03T20:38:45.793Z,0
2022-10-03T20:39:26.316Z,0
2022-10-03T20:40:06.748Z,0
2022-10-03T20:40:47.280Z,0
2022-10-03T20:41:27.724Z,0
2022-10-03T20:42:08.203Z,0
2022-10-03T20:42:48.704Z,0
2022-10-03T20:50:14.146Z,0
2022-10-03T20:50:54.656Z,0
2022-10-03T20:51:35.182Z,0
2022-10-03T20:52:15.648Z,0
2022-10-03T20:52:56.156Z,0
2022-10-03T20:53:36.649Z,0
2022-10-03T20:54:57.562Z,0
2022-10-03T20:55:38.070Z,0
2022-10-03T20:56:18.537Z,0
2022-10-03T21:03:43.919Z,0
2022-10-03T21:04:24.426Z,0
2022-10-03T21:05:04.930Z,0
2022-10-03T21:05:45.460Z,0
2022-10-03T21:06:25.959Z,0
2022-10-03T21:07:06.505Z,0
2022-10-03T21:07:46.974Z,0
2022-10-03T21:08:27.476Z,0
2022-10-03T21:09:08.084Z,0
2022-10-03T21:09:48.478Z,0
2022-10-03T21:17:54.284Z,0
2022-10-03T21:18:34.779Z,0
2022-10-03T21:19:15.233Z,0
2022-10-03T21:19:55.709Z,0
2022-10-03T21:20:36.171Z,0
2022-10-03T21:21:16.631Z,0
2022-10-03T21:21:57.118Z,0
2022-10-03T21:22:37.558Z,0
2022-10-03T21:23:18.052Z,0
2022-10-03T21:23:58.540Z,0
2022-10-03T21:32:04.240Z,0
2022-10-03T21:32:44.687Z,0
2022-10-03T21:33:25.195Z,0
2022-10-03T21:34:06.365Z,0
2022-10-03T21:34:46.839Z,0
2022-10-03T21:35:27.336Z,0
2022-10-03T21:36:07.816Z,0
2022-10-03T21:36:48.304Z,0
2022-10-03T21:37:28.789Z,0
2022-10-03T21:44:54.051Z,0
2022-10-03T21:45:34.558Z,0
2022-10-03T21:46:15.063Z,0
2022-10-03T21:46:55.439Z,0
2022-10-03T21:47:35.947Z,0
2022-10-03T21:48:16.421Z,0
2022-10-03T21:48:56.929Z,0
2022-10-03T21:49:37.400Z,0
2022-10-03T21:50:17.897Z,0
2022-10-03T21:50:58.330Z,0
2022-10-03T21:51:39.014Z,0
2022-10-03T22:00:57.189Z,0
2022-10-03T22:01:38.404Z,0
2022-10-03T22:02:18.642Z,0
2022-10-03T22:06:21.502Z,0
2022-10-03T22:07:01.956Z,0
2022-10-03T22:07:42.450Z,0
2022-10-03T22:08:22.939Z,0
2022-10-03T22:09:03.432Z,0
2022-10-03T22:09:43.860Z,0
2022-10-03T22:10:24.339Z,0
2022-10-03T22:11:04.830Z,0
2022-10-03T22:11:45.303Z,0